createdAt,value
2019-02-18T00:06:01.549Z,1.3
2019-02-18T00:11:01.437Z,1.3
2019-02-18T00:21:01.557Z,1.2
2019-02-18T00:26:01.499Z,1.3
2019-02-18T00:31:01.429Z,1.3
2019-02-18T00:36:01.593Z,1.3
2019-02-18T00:41:01.445Z,1.3
2019-02-18T00:51:01.479Z,1.2
2019-02-18T01:01:01.529Z,1.2
2019-02-18T01:06:01.493Z,1.2
2019-02-18T01:11:01.478Z,1.2
2019-02-18T01:16:01.567Z,1.3
2019-02-18T01:21:01.466Z,1.4
2019-02-18T01:26:01.520Z,1.4
2019-02-18T01:31:01.439Z,1.4
2019-02-18T01:41:01.544Z,1.3
2019-02-18T01:51:01.499Z,1.3
2019-02-18T02:06:01.490Z,1.2
2019-02-18T02:11:01.431Z,1.2
2019-02-18T02:16:01.554Z,1.2
2019-02-18T02:21:01.490Z,1.4
2019-02-18T02:31:02.071Z,1.2
2019-02-18T02:46:01.507Z,1.1
2019-02-18T02:51:01.462Z,1.1
2019-02-18T03:01:01.593Z,1.2
2019-02-18T03:11:01.559Z,1.3
2019-02-18T03:16:01.514Z,1.3
2019-02-18T03:21:01.447Z,1.3
2019-02-18T03:36:01.498Z,1.2
2019-02-18T03:41:03.982Z,1.2
2019-02-18T03:46:01.500Z,1.2
2019-02-18T03:51:01.500Z,1.2
2019-02-18T03:56:01.562Z,1.2
2019-02-18T04:06:01.547Z,1.2
2019-02-18T04:16:01.535Z,1.2
2019-02-18T04:21:01.443Z,1.2
2019-02-18T04:26:01.693Z,1.2
2019-02-18T04:36:01.575Z,1.2
2019-02-18T04:41:01.447Z,1.2
2019-02-18T04:56:01.523Z,1.2
2019-02-18T05:11:01.503Z,1.2
2019-02-18T05:16:01.557Z,1.2
2019-02-18T05:31:01.444Z,1.1
2019-02-18T05:46:01.541Z,1.2
2019-02-18T05:56:06.601Z,1.2
2019-02-18T06:01:06.463Z,1.2
2019-02-18T06:16:01.568Z,1.2
2019-02-18T06:26:06.513Z,1.2
2019-02-18T06:41:06.500Z,1.3
2019-02-18T06:46:01.502Z,1.3
2019-02-18T06:56:01.636Z,1.3
2019-02-18T07:11:01.553Z,1.3
2019-02-18T07:16:01.506Z,1.3
2019-02-18T07:26:01.437Z,1.3
2019-02-18T07:41:01.482Z,1.3
2019-02-18T07:46:01.493Z,1.3
2019-02-18T08:01:01.504Z,1.3
2019-02-18T08:16:01.501Z,1.2
2019-02-18T08:31:01.436Z,1.3
2019-02-18T08:36:01.560Z,1.6
2019-02-18T08:41:01.429Z,1.7
2019-02-18T08:46:01.543Z,2.4
2019-02-18T08:51:01.431Z,2.3
2019-02-18T08:56:01.624Z,3.7
2019-02-18T09:01:03.300Z,3.8
2019-02-18T09:06:01.600Z,3.6
2019-02-18T09:11:01.436Z,3.7
2019-02-18T09:16:01.512Z,4.3
2019-02-18T09:21:01.446Z,4.3
2019-02-18T09:26:01.502Z,4.7
2019-02-18T09:31:01.489Z,4.7
2019-02-18T09:36:01.441Z,6.7
2019-02-18T09:41:01.457Z,6.6
2019-02-18T09:46:01.560Z,6.5
2019-02-18T09:51:01.437Z,6.4
2019-02-18T09:56:01.577Z,6.7
2019-02-18T10:01:01.437Z,6.7
2019-02-18T10:06:01.499Z,6.9
2019-02-18T10:11:01.437Z,7.0
2019-02-18T10:16:01.574Z,8.1
2019-02-18T10:21:01.445Z,8.2
2019-02-18T10:26:01.518Z,7.9
2019-02-18T10:31:01.453Z,8.0
2019-02-18T10:36:01.663Z,8.8
2019-02-18T10:41:07.589Z,8.7
2019-02-18T10:46:01.626Z,9.4
2019-02-18T10:51:01.441Z,9.1
2019-02-18T11:01:01.447Z,8.6
2019-02-18T11:06:01.572Z,8.7
2019-02-18T11:11:01.531Z,8.7
2019-02-18T11:16:01.575Z,9.1
2019-02-18T11:21:01.815Z,8.9
2019-02-18T11:26:01.443Z,8.5
2019-02-18T11:31:01.471Z,8.3
2019-02-18T11:36:01.496Z,8.5
2019-02-18T11:41:01.485Z,8.5
2019-02-18T11:46:01.509Z,9.5
2019-02-18T11:51:01.444Z,9.5
2019-02-18T11:56:02.174Z,10.1
2019-02-18T12:01:01.932Z,10.1
2019-02-18T12:06:01.528Z,10.1
2019-02-18T12:11:01.451Z,10.9
2019-02-18T12:16:02.132Z,10.9
2019-02-18T12:21:01.421Z,12.0
2019-02-18T12:26:01.562Z,12.1
2019-02-18T12:31:02.146Z,11.8
2019-02-18T12:36:01.569Z,11.6
2019-02-18T12:41:01.470Z,12.8
2019-02-18T12:46:01.506Z,12.9
2019-02-18T12:51:03.658Z,12.7
2019-02-18T12:56:01.645Z,12.9
2019-02-18T13:01:01.516Z,13.9
2019-02-18T13:06:01.701Z,13.9
2019-02-18T13:11:01.514Z,13.5
2019-02-18T13:16:02.269Z,13.5
2019-02-18T13:21:01.643Z,13.9
2019-02-18T13:26:01.554Z,13.5
2019-02-18T13:31:02.277Z,13.2
2019-02-18T13:36:01.498Z,12.8
2019-02-18T13:41:01.492Z,12.9
2019-02-18T13:46:02.126Z,12.9
2019-02-18T13:51:01.479Z,13.0
2019-02-18T13:56:01.608Z,12.8
2019-02-18T14:06:01.607Z,12.6
2019-02-18T14:11:01.481Z,12.3
2019-02-18T14:16:01.531Z,11.9
2019-02-18T14:21:01.516Z,11.8
2019-02-18T14:26:01.526Z,11.7
2019-02-18T14:31:01.437Z,11.6
2019-02-18T14:36:01.565Z,11.3
2019-02-18T14:41:01.499Z,10.7
2019-02-18T14:46:01.504Z,10.2
2019-02-18T14:51:01.504Z,9.5
2019-02-18T14:56:02.070Z,9.4
2019-02-18T15:01:01.559Z,9.3
2019-02-18T15:06:01.449Z,9.5
2019-02-18T15:11:01.812Z,9.7
2019-02-18T15:16:01.719Z,10.0
2019-02-18T15:21:01.456Z,9.9
2019-02-18T15:26:01.614Z,10.0
2019-02-18T15:36:01.613Z,9.7
2019-02-18T15:41:01.429Z,9.0
2019-02-18T15:46:01.490Z,9.1
2019-02-18T15:51:01.427Z,8.5
2019-02-18T16:01:06.593Z,7.5
2019-02-18T16:06:07.023Z,7.6
2019-02-18T16:11:01.465Z,6.9
2019-02-18T16:16:02.150Z,6.8
2019-02-18T16:21:02.111Z,6.0
2019-02-18T16:26:01.501Z,6.0
2019-02-18T16:31:01.507Z,5.4
2019-02-18T16:41:02.070Z,5.4
2019-02-18T16:51:01.436Z,5.3
2019-02-18T17:01:01.614Z,4.7
2019-02-18T17:06:01.567Z,4.7
2019-02-18T17:11:01.499Z,3.7
2019-02-18T17:16:01.563Z,4.2
2019-02-18T17:21:01.492Z,3.9
2019-02-18T17:26:01.572Z,4.1
2019-02-18T17:31:02.137Z,3.5
2019-02-18T17:36:02.748Z,3.5
2019-02-18T17:41:01.891Z,3.6
2019-02-18T17:46:02.257Z,3.6
2019-02-18T17:51:01.530Z,3.4
2019-02-18T17:56:01.554Z,3.4
2019-02-18T18:01:01.419Z,2.5
2019-02-18T18:06:01.660Z,2.4
2019-02-18T18:11:01.439Z,2.4
2019-02-18T18:16:01.446Z,2.4
2019-02-18T18:26:01.614Z,3.5
2019-02-18T18:31:01.536Z,3.6
2019-02-18T18:36:01.495Z,3.6
2019-02-18T18:41:01.456Z,2.8
2019-02-18T18:46:01.584Z,2.9
2019-02-18T18:51:01.500Z,2.2
2019-02-18T18:56:06.630Z,2.2
2019-02-18T19:01:01.460Z,1.1
2019-02-18T19:06:01.491Z,1.2
2019-02-18T19:11:01.450Z,1.2
2019-02-18T19:16:01.425Z,1.2
2019-02-18T19:21:01.532Z,1.2
2019-02-18T19:26:01.546Z,1.2
2019-02-18T19:31:01.470Z,1.1
2019-02-18T19:46:01.462Z,1.1
2019-02-18T19:51:01.493Z,1.2
2019-02-18T19:56:01.499Z,1.2
2019-02-18T20:01:01.444Z,1.2
2019-02-18T20:11:01.495Z,1.3
2019-02-18T20:26:01.486Z,1.3
2019-02-18T20:36:01.448Z,1.3
2019-02-18T20:51:01.567Z,1.2
2019-02-18T21:06:01.498Z,1.3
2019-02-18T21:11:01.454Z,1.3
2019-02-18T21:16:01.435Z,1.3
2019-02-18T21:21:01.432Z,1.3
2019-02-18T21:31:01.571Z,1.3
2019-02-18T21:46:01.558Z,1.3
2019-02-18T21:51:01.514Z,1.3
2019-02-18T21:56:01.497Z,1.3
2019-02-18T22:06:01.491Z,1.3
2019-02-18T22:21:01.502Z,1.2
2019-02-18T22:26:02.444Z,1.3
2019-02-18T22:41:01.598Z,1.3
2019-02-18T22:56:01.573Z,1.3
2019-02-18T23:01:01.441Z,1.3
2019-02-18T23:06:01.436Z,1.3
2019-02-18T23:21:01.499Z,1.3
2019-02-18T23:36:02.448Z,1.3
2019-02-18T23:47:01.488Z,1.4
2019-02-18T23:57:01.597Z,1.4
